CheckWX is a tool to help pilots better visualize weather data.  It is not intended as a substitute for an official pre-flight weather briefing.

21:38:40 UTC

CYND TAF
Ottawa / Gatineau Airport
Ottawa, Canada
TAF CYND 201738Z 2018/2101 VRB03KT P6SM FEW060 BKN200 FM202100 VRB03KT P6SM SCT040 BKN120 RMK NXT FCST WILL BE ISSUED AT 211245Z

Mar-20@
18:00 UTC

Mar-20 @ 18:00 UTC

Mar-20@
21:00 UTC

Mar-20 @ 21:00 UTC

TAF CYND 201738Z 2018/2101 VRB03KT P6SM FEW060 BKN200

Expired

Wind
  • Variable at 3 KTS
Cloud Levels
  • Few at 6,000' AGL
  • Broken at 20,000' AGL

Mar-20@
21:00 UTC

Mar-20 @ 21:00 UTC

Mar-21@
01:00 UTC

Mar-21 @ 01:00 UTC

FM202100 VRB03KT P6SM SCT040 BKN120 RMK NXT FCST WILL BE ISSUED AT 211245Z

From

From Standard forecast or significant change

Wind
  • Variable at 3 KTS
Cloud Levels
  • Scattered at 4,000' AGL
  • Broken at 12,000' AGL